Clinton, MS (39060)

11:02 AM CDT on July 30, 2014 (GMT -0500)
Hawkins (KHKS) Elev 341 ft | 32.33 °N, 90.22 °W | Change Station

Current weather conditions updated 9 minutes ago

Clear
Clear
78 °F
Feels Like 78 °F
N
4
Wind Variable Wind from Variable

Today is forecast to be Cooler than yesterday.

Today
High -- | Low -- °F
--% Chance of Precip.
Yesterday
High -- | Low -- °F
Precip. -- in
6:14 AM 8:00 PM
Waxing Crescent, 12% visible
Pressure 30.10 in
Visibility 10.0 miles
Clouds Clear
Dew Point 54 °F
Humidity 43%
Rainfall 0.00 in
Snow Depth Not available.
UV 9 out of 12
Pollen 3.80 out of 12
Air Quality Not available.
Flu Activity Not available.
METAR KHKS 301553Z VRB03KT 10SM CLR 26/12 A3012 RMK AO2 SLP192 T02560122

More Conditions Fewer Conditions

Pressure 30.10 in
Visibility 10.0 miles
Clouds Clear
Dew Point 54 °F
Humidity 43%
Rainfall 0.00 in
Snow Depth Not available.
UV 9 out of 12
Pollen 3.80 out of 12
Air Quality Not available.
Flu Activity Not available.
METAR KHKS 301553Z VRB03KT 10SM CLR 26/12 A3012 RMK AO2 SLP192 T02560122

More Conditions Fewer Conditions

10-Day Weather Forecast

Almanac

Astronomy

Jul. 30, 2014 Rise Set
Actual Time 6:14 AM CDT 8:00 PM CDT
Civil Twilight 5:47 AM CDT 8:27 PM CDT
Nautical Twilight 5:15 AM CDT 8:59 PM CDT
Astronomical Twilight 4:40 AM CDT 9:33 PM CDT
Moon 9:31 AM CDT 9:59 PM CDT
Length of Visible Light 14h 39m
Length of Day
13h 45m
Tomorrow will be 1m 27s shorter.
Waxing Crescent, 12% of the Moon is Illuminated
Today
Waxing Crescent
Aug 3
First Quarter
Aug 10
Full
Aug 17
Last Quarter
Aug 25
New

Today's Extremes

State Highs State Lows

Community

WunderPhotos

Upload Photos

1,739,125 photos uploaded!

WunderBlogs® & News

By Dr. Jeff Masters
Director of Meteorology, Weather Underground
By Kari Strenfel
Meteorologist, Weather Underground
By Christopher C. Burt
Weather Historian, Weather Underground
July 30, 2014
July 30, 2014
July 30, 2014

Nearby

Snow Depth

Station Depth Elevation
No new snow has been reported.

Earthquake Activity

City Distance Mag. Time & Date
No recent earthquake activity has been reported nearby.
Minimum magnitude displayed is 2.5.

Coastal Water Temperatures

Place Temperature
No Stations Reporting

Nearby Weather Stations

Station Location Temp. Dew Point Humidity Wind Precip. Elev Updated Type
Red Oak, Gluckstadt, MS 61.0 °F 59 °F 94% North  at  0.0 mph 0.00 in / hr 289 ft 8:18 AM CDT Rapid Fire

Show More Stations Show Fewer Stations